sensor_id;sensor_type;location;lat;lon;timestamp;P1;durP1;ratioP1;P2;durP2;ratioP2
57111;SDS011;42992;49.084;19.300;2022-07-23T00:00:03;11.48;;;9.32;;
57111;SDS011;42992;49.084;19.300;2022-07-23T00:02:28;13.73;;;9.40;;
57111;SDS011;42992;49.084;19.300;2022-07-23T00:04:53;13.00;;;9.20;;
57111;SDS011;42992;49.084;19.300;2022-07-23T00:07:19;12.40;;;9.52;;
57111;SDS011;42992;49.084;19.300;2022-07-23T00:09:44;11.20;;;9.85;;
57111;SDS011;42992;49.084;19.300;2022-07-23T00:12:09;12.70;;;9.93;;
57111;SDS011;42992;49.084;19.300;2022-07-23T00:14:34;15.70;;;9.85;;
57111;SDS011;42992;49.084;19.300;2022-07-23T00:17:00;14.63;;;9.15;;
57111;SDS011;42992;49.084;19.300;2022-07-23T00:19:25;11.80;;;10.15;;
57111;SDS011;42992;49.084;19.300;2022-07-23T00:21:50;13.70;;;10.45;;
57111;SDS011;42992;49.084;19.300;2022-07-23T00:24:16;14.77;;;9.63;;
57111;SDS011;42992;49.084;19.300;2022-07-23T00:26:41;13.07;;;9.52;;
57111;SDS011;42992;49.084;19.300;2022-07-23T00:29:06;14.77;;;9.00;;
57111;SDS011;42992;49.084;19.300;2022-07-23T00:31:31;13.82;;;9.48;;
57111;SDS011;42992;49.084;19.300;2022-07-23T00:33:57;15.55;;;8.70;;
57111;SDS011;42992;49.084;19.300;2022-07-23T00:36:23;10.70;;;8.73;;
57111;SDS011;42992;49.084;19.300;2022-07-23T00:38:48;10.82;;;8.90;;
57111;SDS011;42992;49.084;19.300;2022-07-23T00:41:14;12.57;;;9.82;;
57111;SDS011;42992;49.084;19.300;2022-07-23T00:43:39;12.43;;;9.18;;
57111;SDS011;42992;49.084;19.300;2022-07-23T00:46:04;12.68;;;9.00;;
57111;SDS011;42992;49.084;19.300;2022-07-23T00:48:29;13.70;;;9.38;;
57111;SDS011;42992;49.084;19.300;2022-07-23T00:50:55;11.15;;;9.07;;
57111;SDS011;42992;49.084;19.300;2022-07-23T00:53:20;13.60;;;9.55;;
57111;SDS011;42992;49.084;19.300;2022-07-23T00:55:45;11.45;;;9.02;;
57111;SDS011;42992;49.084;19.300;2022-07-23T00:58:12;11.85;;;9.20;;
57111;SDS011;42992;49.084;19.300;2022-07-23T01:00:37;11.70;;;8.93;;
57111;SDS011;42992;49.084;19.300;2022-07-23T01:03:03;12.27;;;9.02;;
57111;SDS011;42992;49.084;19.300;2022-07-23T01:05:28;12.88;;;9.65;;
57111;SDS011;42992;49.084;19.300;2022-07-23T01:07:53;14.70;;;9.07;;
57111;SDS011;42992;49.084;19.300;2022-07-23T01:10:19;10.45;;;8.88;;
57111;SDS011;42992;49.084;19.300;2022-07-23T01:12:57;11.48;;;9.25;;
57111;SDS011;42992;49.084;19.300;2022-07-23T01:15:22;12.15;;;8.80;;
57111;SDS011;42992;49.084;19.300;2022-07-23T01:17:48;13.32;;;9.38;;
57111;SDS011;42992;49.084;19.300;2022-07-23T01:20:13;13.45;;;9.18;;
57111;SDS011;42992;49.084;19.300;2022-07-23T01:22:38;12.30;;;9.15;;
57111;SDS011;42992;49.084;19.300;2022-07-23T01:25:04;10.68;;;9.02;;
57111;SDS011;42992;49.084;19.300;2022-07-23T01:27:29;14.93;;;9.38;;
57111;SDS011;42992;49.084;19.300;2022-07-23T01:29:55;12.20;;;9.70;;
57111;SDS011;42992;49.084;19.300;2022-07-23T01:32:21;11.77;;;9.50;;
57111;SDS011;42992;49.084;19.300;2022-07-23T01:34:47;11.23;;;9.23;;
57111;SDS011;42992;49.084;19.300;2022-07-23T01:37:12;11.20;;;9.23;;
57111;SDS011;42992;49.084;19.300;2022-07-23T01:39:37;12.70;;;9.70;;
57111;SDS011;42992;49.084;19.300;2022-07-23T01:42:02;11.73;;;8.95;;
57111;SDS011;42992;49.084;19.300;2022-07-23T01:44:28;12.20;;;8.98;;
57111;SDS011;42992;49.084;19.300;2022-07-23T01:46:53;11.27;;;9.20;;
57111;SDS011;42992;49.084;19.300;2022-07-23T01:49:18;11.45;;;8.93;;
57111;SDS011;42992;49.084;19.300;2022-07-23T01:51:44;13.68;;;9.13;;
57111;SDS011;42992;49.084;19.300;2022-07-23T01:54:24;10.88;;;9.18;;
57111;SDS011;42992;49.084;19.300;2022-07-23T01:56:50;11.45;;;9.40;;
57111;SDS011;42992;49.084;19.300;2022-07-23T01:59:15;15.60;;;9.70;;
57111;SDS011;42992;49.084;19.300;2022-07-23T02:01:40;11.75;;;9.57;;
57111;SDS011;42992;49.084;19.300;2022-07-23T02:04:06;13.75;;;10.00;;
57111;SDS011;42992;49.084;19.300;2022-07-23T02:06:31;11.50;;;9.70;;
57111;SDS011;42992;49.084;19.300;2022-07-23T02:08:56;12.30;;;10.70;;
57111;SDS011;42992;49.084;19.300;2022-07-23T02:11:21;17.05;;;11.48;;
57111;SDS011;42992;49.084;19.300;2022-07-23T02:13:47;17.08;;;12.25;;
57111;SDS011;42992;49.084;19.300;2022-07-23T02:16:12;13.80;;;10.60;;
57111;SDS011;42992;49.084;19.300;2022-07-23T02:18:37;11.95;;;10.27;;
57111;SDS011;42992;49.084;19.300;2022-07-23T02:21:02;12.32;;;10.25;;
57111;SDS011;42992;49.084;19.300;2022-07-23T02:23:28;13.02;;;10.63;;
57111;SDS011;42992;49.084;19.300;2022-07-23T02:25:53;14.80;;;10.63;;
57111;SDS011;42992;49.084;19.300;2022-07-23T02:28:19;14.52;;;12.13;;
57111;SDS011;42992;49.084;19.300;2022-07-23T02:30:44;11.38;;;10.07;;
57111;SDS011;42992;49.084;19.300;2022-07-23T02:33:09;12.73;;;9.82;;
57111;SDS011;42992;49.084;19.300;2022-07-23T02:35:35;11.30;;;9.77;;
57111;SDS011;42992;49.084;19.300;2022-07-23T02:38:00;13.02;;;9.38;;
57111;SDS011;42992;49.084;19.300;2022-07-23T02:40:25;15.82;;;10.02;;
57111;SDS011;42992;49.084;19.300;2022-07-23T02:42:50;11.38;;;9.98;;
57111;SDS011;42992;49.084;19.300;2022-07-23T02:45:16;13.23;;;10.10;;
57111;SDS011;42992;49.084;19.300;2022-07-23T02:47:41;15.57;;;10.82;;
57111;SDS011;42992;49.084;19.300;2022-07-23T02:50:06;14.75;;;10.05;;
57111;SDS011;42992;49.084;19.300;2022-07-23T02:52:32;12.32;;;10.18;;
57111;SDS011;42992;49.084;19.300;2022-07-23T02:54:57;12.23;;;9.75;;
57111;SDS011;42992;49.084;19.300;2022-07-23T02:57:22;12.80;;;10.18;;
57111;SDS011;42992;49.084;19.300;2022-07-23T02:59:48;12.82;;;10.15;;
57111;SDS011;42992;49.084;19.300;2022-07-23T03:02:13;15.57;;;11.70;;
57111;SDS011;42992;49.084;19.300;2022-07-23T03:04:38;12.82;;;10.75;;
57111;SDS011;42992;49.084;19.300;2022-07-23T03:07:03;14.13;;;11.02;;
57111;SDS011;42992;49.084;19.300;2022-07-23T03:09:29;13.18;;;10.85;;
57111;SDS011;42992;49.084;19.300;2022-07-23T03:11:54;17.35;;;11.13;;
57111;SDS011;42992;49.084;19.300;2022-07-23T03:14:19;13.57;;;10.73;;
57111;SDS011;42992;49.084;19.300;2022-07-23T03:16:45;14.27;;;10.93;;
57111;SDS011;42992;49.084;19.300;2022-07-23T03:19:10;14.23;;;10.18;;
57111;SDS011;42992;49.084;19.300;2022-07-23T03:21:35;14.90;;;10.35;;
57111;SDS011;42992;49.084;19.300;2022-07-23T03:24:05;10.90;;;9.80;;
57111;SDS011;42992;49.084;19.300;2022-07-23T03:26:30;13.57;;;10.38;;
57111;SDS011;42992;49.084;19.300;2022-07-23T03:28:55;12.57;;;10.57;;
57111;SDS011;42992;49.084;19.300;2022-07-23T03:31:20;15.18;;;11.63;;
57111;SDS011;42992;49.084;19.300;2022-07-23T03:33:46;14.40;;;10.88;;
57111;SDS011;42992;49.084;19.300;2022-07-23T03:36:11;13.48;;;11.50;;
57111;SDS011;42992;49.084;19.300;2022-07-23T03:38:36;16.58;;;12.88;;
57111;SDS011;42992;49.084;19.300;2022-07-23T03:41:01;16.77;;;13.93;;
57111;SDS011;42992;49.084;19.300;2022-07-23T03:43:27;17.08;;;13.27;;
57111;SDS011;42992;49.084;19.300;2022-07-23T03:45:52;16.77;;;14.25;;
57111;SDS011;42992;49.084;19.300;2022-07-23T03:48:17;18.48;;;14.65;;
57111;SDS011;42992;49.084;19.300;2022-07-23T03:50:43;16.85;;;12.25;;
57111;SDS011;42992;49.084;19.300;2022-07-23T03:53:08;16.23;;;12.32;;
57111;SDS011;42992;49.084;19.300;2022-07-23T03:55:34;14.60;;;11.82;;
57111;SDS011;42992;49.084;19.300;2022-07-23T03:57:59;14.85;;;11.70;;
57111;SDS011;42992;49.084;19.300;2022-07-23T04:00:24;14.52;;;11.65;;
57111;SDS011;42992;49.084;19.300;2022-07-23T04:02:49;16.00;;;12.20;;
57111;SDS011;42992;49.084;19.300;2022-07-23T04:05:15;16.23;;;11.93;;
57111;SDS011;42992;49.084;19.300;2022-07-23T04:07:40;14.15;;;9.88;;
57111;SDS011;42992;49.084;19.300;2022-07-23T04:10:05;13.85;;;9.93;;
57111;SDS011;42992;49.084;19.300;2022-07-23T04:12:31;14.07;;;10.30;;
57111;SDS011;42992;49.084;19.300;2022-07-23T04:14:56;18.77;;;10.68;;
57111;SDS011;42992;49.084;19.300;2022-07-23T04:17:21;16.13;;;10.75;;
57111;SDS011;42992;49.084;19.300;2022-07-23T04:19:47;13.55;;;10.45;;
57111;SDS011;42992;49.084;19.300;2022-07-23T04:22:12;15.60;;;10.32;;
57111;SDS011;42992;49.084;19.300;2022-07-23T04:24:37;14.73;;;10.57;;
57111;SDS011;42992;49.084;19.300;2022-07-23T04:27:03;15.05;;;12.35;;
57111;SDS011;42992;49.084;19.300;2022-07-23T04:29:28;14.55;;;11.48;;
57111;SDS011;42992;49.084;19.300;2022-07-23T04:31:54;15.38;;;11.30;;
57111;SDS011;42992;49.084;19.300;2022-07-23T04:34:19;11.93;;;10.38;;
57111;SDS011;42992;49.084;19.300;2022-07-23T04:36:44;14.98;;;11.43;;
57111;SDS011;42992;49.084;19.300;2022-07-23T04:39:10;14.25;;;10.73;;
57111;SDS011;42992;49.084;19.300;2022-07-23T04:41:35;12.40;;;10.80;;
57111;SDS011;42992;49.084;19.300;2022-07-23T04:44:01;18.15;;;11.52;;
57111;SDS011;42992;49.084;19.300;2022-07-23T04:46:26;14.63;;;11.23;;
57111;SDS011;42992;49.084;19.300;2022-07-23T04:48:51;13.85;;;9.90;;
57111;SDS011;42992;49.084;19.300;2022-07-23T04:51:17;14.70;;;11.38;;
57111;SDS011;42992;49.084;19.300;2022-07-23T04:53:42;19.17;;;10.60;;
57111;SDS011;42992;49.084;19.300;2022-07-23T04:56:07;17.00;;;11.00;;
57111;SDS011;42992;49.084;19.300;2022-07-23T04:58:33;16.95;;;11.30;;
57111;SDS011;42992;49.084;19.300;2022-07-23T05:00:58;16.52;;;10.95;;
57111;SDS011;42992;49.084;19.300;2022-07-23T05:03:23;12.50;;;10.73;;
57111;SDS011;42992;49.084;19.300;2022-07-23T05:05:49;15.52;;;12.13;;
57111;SDS011;42992;49.084;19.300;2022-07-23T05:08:15;14.63;;;10.82;;
57111;SDS011;42992;49.084;19.300;2022-07-23T05:10:40;16.65;;;10.38;;
57111;SDS011;42992;49.084;19.300;2022-07-23T05:13:05;12.27;;;10.48;;
57111;SDS011;42992;49.084;19.300;2022-07-23T05:15:30;15.43;;;10.43;;
57111;SDS011;42992;49.084;19.300;2022-07-23T05:17:56;13.60;;;10.05;;
57111;SDS011;42992;49.084;19.300;2022-07-23T05:20:21;14.35;;;10.48;;
57111;SDS011;42992;49.084;19.300;2022-07-23T05:22:46;13.38;;;10.75;;
57111;SDS011;42992;49.084;19.300;2022-07-23T05:25:12;11.95;;;9.70;;
57111;SDS011;42992;49.084;19.300;2022-07-23T05:27:37;14.25;;;10.68;;
57111;SDS011;42992;49.084;19.300;2022-07-23T05:30:02;14.63;;;9.95;;
57111;SDS011;42992;49.084;19.300;2022-07-23T05:32:28;15.38;;;10.20;;
57111;SDS011;42992;49.084;19.300;2022-07-23T05:34:53;31.52;;;23.67;;
57111;SDS011;42992;49.084;19.300;2022-07-23T05:37:18;13.93;;;10.63;;
57111;SDS011;42992;49.084;19.300;2022-07-23T05:39:43;14.60;;;10.20;;
57111;SDS011;42992;49.084;19.300;2022-07-23T05:42:09;13.90;;;9.90;;
57111;SDS011;42992;49.084;19.300;2022-07-23T05:44:34;11.77;;;9.65;;
57111;SDS011;42992;49.084;19.300;2022-07-23T05:46:59;13.68;;;9.77;;
57111;SDS011;42992;49.084;19.300;2022-07-23T05:49:25;14.95;;;9.35;;
57111;SDS011;42992;49.084;19.300;2022-07-23T05:51:50;11.43;;;9.20;;
57111;SDS011;42992;49.084;19.300;2022-07-23T05:54:16;11.88;;;9.02;;
57111;SDS011;42992;49.084;19.300;2022-07-23T05:56:41;11.63;;;9.75;;
57111;SDS011;42992;49.084;19.300;2022-07-23T05:59:06;11.70;;;10.23;;
57111;SDS011;42992;49.084;19.300;2022-07-23T06:01:32;13.57;;;9.23;;
57111;SDS011;42992;49.084;19.300;2022-07-23T06:03:57;12.38;;;9.63;;
57111;SDS011;42992;49.084;19.300;2022-07-23T06:06:22;13.18;;;10.35;;
57111;SDS011;42992;49.084;19.300;2022-07-23T06:08:47;13.35;;;9.80;;
57111;SDS011;42992;49.084;19.300;2022-07-23T06:11:13;12.98;;;9.88;;
57111;SDS011;42992;49.084;19.300;2022-07-23T06:13:38;17.15;;;11.27;;
57111;SDS011;42992;49.084;19.300;2022-07-23T06:16:04;14.38;;;11.23;;
57111;SDS011;42992;49.084;19.300;2022-07-23T06:18:29;19.27;;;11.35;;
57111;SDS011;42992;49.084;19.300;2022-07-23T06:20:54;16.63;;;10.63;;
57111;SDS011;42992;49.084;19.300;2022-07-23T06:23:20;14.50;;;10.85;;
57111;SDS011;42992;49.084;19.300;2022-07-23T06:25:48;16.05;;;11.02;;
57111;SDS011;42992;49.084;19.300;2022-07-23T06:28:13;14.75;;;10.27;;
57111;SDS011;42992;49.084;19.300;2022-07-23T06:30:38;13.52;;;10.65;;
57111;SDS011;42992;49.084;19.300;2022-07-23T06:33:03;12.95;;;10.18;;
57111;SDS011;42992;49.084;19.300;2022-07-23T06:35:29;16.10;;;10.40;;
57111;SDS011;42992;49.084;19.300;2022-07-23T06:37:54;14.52;;;10.25;;
57111;SDS011;42992;49.084;19.300;2022-07-23T06:40:20;14.07;;;11.00;;
57111;SDS011;42992;49.084;19.300;2022-07-23T06:42:45;12.55;;;9.88;;
57111;SDS011;42992;49.084;19.300;2022-07-23T06:45:10;14.10;;;11.07;;
57111;SDS011;42992;49.084;19.300;2022-07-23T06:47:36;16.40;;;10.57;;
57111;SDS011;42992;49.084;19.300;2022-07-23T06:50:02;13.75;;;10.27;;
57111;SDS011;42992;49.084;19.300;2022-07-23T06:52:27;17.10;;;10.82;;
57111;SDS011;42992;49.084;19.300;2022-07-23T06:54:52;12.65;;;10.93;;
57111;SDS011;42992;49.084;19.300;2022-07-23T06:57:18;15.52;;;10.18;;
57111;SDS011;42992;49.084;19.300;2022-07-23T06:59:43;12.50;;;10.52;;
57111;SDS011;42992;49.084;19.300;2022-07-23T07:02:08;17.65;;;9.95;;
57111;SDS011;42992;49.084;19.300;2022-07-23T07:04:33;17.25;;;10.90;;
57111;SDS011;42992;49.084;19.300;2022-07-23T07:06:59;15.02;;;9.82;;
57111;SDS011;42992;49.084;19.300;2022-07-23T07:09:24;14.57;;;10.18;;
57111;SDS011;42992;49.084;19.300;2022-07-23T07:11:49;15.82;;;10.60;;
57111;SDS011;42992;49.084;19.300;2022-07-23T07:14:15;15.75;;;10.82;;
57111;SDS011;42992;49.084;19.300;2022-07-23T07:16:40;21.23;;;10.60;;
57111;SDS011;42992;49.084;19.300;2022-07-23T07:19:05;14.07;;;9.55;;
57111;SDS011;42992;49.084;19.300;2022-07-23T07:21:31;14.02;;;10.10;;
57111;SDS011;42992;49.084;19.300;2022-07-23T07:23:56;13.52;;;10.48;;
57111;SDS011;42992;49.084;19.300;2022-07-23T07:26:21;13.93;;;10.70;;
57111;SDS011;42992;49.084;19.300;2022-07-23T07:28:47;16.83;;;10.32;;
57111;SDS011;42992;49.084;19.300;2022-07-23T07:31:12;17.00;;;9.88;;
57111;SDS011;42992;49.084;19.300;2022-07-23T07:33:37;13.63;;;9.85;;
57111;SDS011;42992;49.084;19.300;2022-07-23T07:36:03;13.18;;;9.52;;
57111;SDS011;42992;49.084;19.300;2022-07-23T07:38:29;13.75;;;9.65;;
57111;SDS011;42992;49.084;19.300;2022-07-23T07:40:54;10.90;;;9.68;;
57111;SDS011;42992;49.084;19.300;2022-07-23T07:43:19;11.23;;;9.95;;
57111;SDS011;42992;49.084;19.300;2022-07-23T07:45:44;15.05;;;10.35;;
57111;SDS011;42992;49.084;19.300;2022-07-23T07:48:10;14.23;;;9.77;;
57111;SDS011;42992;49.084;19.300;2022-07-23T07:50:35;14.55;;;9.15;;
57111;SDS011;42992;49.084;19.300;2022-07-23T07:53:00;11.40;;;9.50;;
57111;SDS011;42992;49.084;19.300;2022-07-23T07:55:26;13.48;;;9.88;;
57111;SDS011;42992;49.084;19.300;2022-07-23T07:57:52;13.23;;;9.98;;
57111;SDS011;42992;49.084;19.300;2022-07-23T08:00:17;10.52;;;9.27;;
57111;SDS011;42992;49.084;19.300;2022-07-23T08:02:44;10.95;;;9.30;;
57111;SDS011;42992;49.084;19.300;2022-07-23T08:05:09;11.55;;;8.95;;
57111;SDS011;42992;49.084;19.300;2022-07-23T08:07:35;15.43;;;9.68;;
57111;SDS011;42992;49.084;19.300;2022-07-23T08:10:00;11.55;;;9.43;;
57111;SDS011;42992;49.084;19.300;2022-07-23T08:12:25;19.52;;;8.48;;
57111;SDS011;42992;49.084;19.300;2022-07-23T08:14:51;11.07;;;8.73;;
57111;SDS011;42992;49.084;19.300;2022-07-23T08:17:17;13.50;;;8.75;;
57111;SDS011;42992;49.084;19.300;2022-07-23T08:19:42;12.45;;;8.32;;
57111;SDS011;42992;49.084;19.300;2022-07-23T08:22:07;12.55;;;8.20;;
57111;SDS011;42992;49.084;19.300;2022-07-23T08:24:32;11.93;;;8.20;;
57111;SDS011;42992;49.084;19.300;2022-07-23T08:26:58;12.77;;;8.25;;
57111;SDS011;42992;49.084;19.300;2022-07-23T08:29:23;11.77;;;8.18;;
57111;SDS011;42992;49.084;19.300;2022-07-23T08:31:48;13.18;;;8.05;;
57111;SDS011;42992;49.084;19.300;2022-07-23T08:34:14;9.93;;;7.90;;
57111;SDS011;42992;49.084;19.300;2022-07-23T08:36:39;11.50;;;7.55;;
57111;SDS011;42992;49.084;19.300;2022-07-23T08:39:04;11.07;;;7.88;;
57111;SDS011;42992;49.084;19.300;2022-07-23T08:41:29;9.18;;;7.55;;
57111;SDS011;42992;49.084;19.300;2022-07-23T08:43:55;8.40;;;7.25;;
57111;SDS011;42992;49.084;19.300;2022-07-23T08:46:21;9.50;;;7.20;;
57111;SDS011;42992;49.084;19.300;2022-07-23T08:48:48;10.45;;;7.60;;
57111;SDS011;42992;49.084;19.300;2022-07-23T08:51:13;10.07;;;6.97;;
57111;SDS011;42992;49.084;19.300;2022-07-23T08:53:39;9.70;;;7.45;;
57111;SDS011;42992;49.084;19.300;2022-07-23T08:56:06;11.27;;;7.13;;
57111;SDS011;42992;49.084;19.300;2022-07-23T08:58:31;8.82;;;7.20;;
57111;SDS011;42992;49.084;19.300;2022-07-23T09:00:57;11.15;;;7.32;;
57111;SDS011;42992;49.084;19.300;2022-07-23T09:03:23;11.00;;;7.30;;
57111;SDS011;42992;49.084;19.300;2022-07-23T09:05:50;13.07;;;7.35;;
57111;SDS011;42992;49.084;19.300;2022-07-23T09:08:16;8.93;;;7.72;;
57111;SDS011;42992;49.084;19.300;2022-07-23T09:10:44;13.80;;;7.63;;
57111;SDS011;42992;49.084;19.300;2022-07-23T09:15:50;8.32;;;7.10;;
57111;SDS011;42992;49.084;19.300;2022-07-23T09:18:16;13.50;;;6.97;;
57111;SDS011;42992;49.084;19.300;2022-07-23T09:20:43;8.38;;;6.82;;
57111;SDS011;42992;49.084;19.300;2022-07-23T09:23:08;10.10;;;6.95;;
57111;SDS011;42992;49.084;19.300;2022-07-23T09:25:33;8.73;;;6.82;;
57111;SDS011;42992;49.084;19.300;2022-07-23T09:27:59;8.98;;;6.50;;
57111;SDS011;42992;49.084;19.300;2022-07-23T09:30:28;9.55;;;7.05;;
57111;SDS011;42992;49.084;19.300;2022-07-23T09:33:10;8.63;;;6.93;;
57111;SDS011;42992;49.084;19.300;2022-07-23T09:35:49;12.32;;;7.65;;
57111;SDS011;42992;49.084;19.300;2022-07-23T09:38:15;10.18;;;6.63;;
57111;SDS011;42992;49.084;19.300;2022-07-23T09:40:41;10.70;;;6.80;;
57111;SDS011;42992;49.084;19.300;2022-07-23T09:43:09;10.40;;;7.30;;
57111;SDS011;42992;49.084;19.300;2022-07-23T09:45:34;10.00;;;6.75;;
57111;SDS011;42992;49.084;19.300;2022-07-23T09:48:10;8.77;;;6.30;;
57111;SDS011;42992;49.084;19.300;2022-07-23T09:50:36;11.93;;;6.70;;
57111;SDS011;42992;49.084;19.300;2022-07-23T09:53:01;11.63;;;6.40;;
57111;SDS011;42992;49.084;19.300;2022-07-23T09:55:30;9.52;;;6.65;;
57111;SDS011;42992;49.084;19.300;2022-07-23T09:58:00;8.13;;;6.70;;
57111;SDS011;42992;49.084;19.300;2022-07-23T10:00:26;8.07;;;6.43;;
57111;SDS011;42992;49.084;19.300;2022-07-23T10:02:51;10.07;;;7.18;;
57111;SDS011;42992;49.084;19.300;2022-07-23T10:05:16;10.50;;;6.57;;
57111;SDS011;42992;49.084;19.300;2022-07-23T10:07:42;9.73;;;7.18;;
57111;SDS011;42992;49.084;19.300;2022-07-23T10:10:08;14.73;;;7.38;;
57111;SDS011;42992;49.084;19.300;2022-07-23T10:12:35;9.55;;;7.20;;
57111;SDS011;42992;49.084;19.300;2022-07-23T10:15:10;11.30;;;7.35;;
57111;SDS011;42992;49.084;19.300;2022-07-23T10:17:35;7.88;;;6.68;;
57111;SDS011;42992;49.084;19.300;2022-07-23T10:20:01;10.38;;;7.30;;
57111;SDS011;42992;49.084;19.300;2022-07-23T10:22:28;10.55;;;7.32;;
57111;SDS011;42992;49.084;19.300;2022-07-23T10:32:57;9.90;;;7.45;;
57111;SDS011;42992;49.084;19.300;2022-07-23T10:38:01;8.00;;;7.20;;
57111;SDS011;42992;49.084;19.300;2022-07-23T10:40:27;9.70;;;7.60;;
57111;SDS011;42992;49.084;19.300;2022-07-23T10:42:58;8.02;;;7.05;;
57111;SDS011;42992;49.084;19.300;2022-07-23T10:45:25;8.75;;;7.47;;
57111;SDS011;42992;49.084;19.300;2022-07-23T10:47:51;9.23;;;7.70;;
57111;SDS011;42992;49.084;19.300;2022-07-23T10:52:42;10.77;;;7.82;;
57111;SDS011;42992;49.084;19.300;2022-07-23T10:57:53;10.27;;;8.00;;
57111;SDS011;42992;49.084;19.300;2022-07-23T11:02:47;9.20;;;7.15;;
57111;SDS011;42992;49.084;19.300;2022-07-23T11:05:17;8.75;;;7.25;;
57111;SDS011;42992;49.084;19.300;2022-07-23T11:10:40;9.75;;;7.15;;
57111;SDS011;42992;49.084;19.300;2022-07-23T11:24:11;16.48;;;7.32;;
57111;SDS011;42992;49.084;19.300;2022-07-23T11:36:57;7.43;;;6.72;;
57111;SDS011;42992;49.084;19.300;2022-07-23T11:39:24;10.88;;;6.70;;
57111;SDS011;42992;49.084;19.300;2022-07-23T11:41:51;8.55;;;6.55;;
57111;SDS011;42992;49.084;19.300;2022-07-23T11:44:30;8.82;;;6.80;;
57111;SDS011;42992;49.084;19.300;2022-07-23T11:46:56;8.85;;;6.80;;
57111;SDS011;42992;49.084;19.300;2022-07-23T11:49:22;8.95;;;6.88;;
57111;SDS011;42992;49.084;19.300;2022-07-23T11:52:01;7.35;;;6.65;;
57111;SDS011;42992;49.084;19.300;2022-07-23T11:54:28;10.07;;;7.45;;
57111;SDS011;42992;49.084;19.300;2022-07-23T11:56:57;12.00;;;6.95;;
57111;SDS011;42992;49.084;19.300;2022-07-23T11:59:23;10.27;;;7.40;;
57111;SDS011;42992;49.084;19.300;2022-07-23T12:04:24;7.70;;;6.97;;
57111;SDS011;42992;49.084;19.300;2022-07-23T12:06:50;8.98;;;7.10;;
57111;SDS011;42992;49.084;19.300;2022-07-23T12:09:15;7.53;;;6.68;;
57111;SDS011;42992;49.084;19.300;2022-07-23T12:11:55;9.38;;;6.88;;
57111;SDS011;42992;49.084;19.300;2022-07-23T12:14:21;9.18;;;6.90;;
57111;SDS011;42992;49.084;19.300;2022-07-23T12:16:46;10.10;;;6.82;;
57111;SDS011;42992;49.084;19.300;2022-07-23T12:19:11;9.18;;;7.15;;
57111;SDS011;42992;49.084;19.300;2022-07-23T12:21:38;9.57;;;7.10;;
57111;SDS011;42992;49.084;19.300;2022-07-23T12:24:07;7.97;;;6.63;;
57111;SDS011;42992;49.084;19.300;2022-07-23T12:26:32;9.70;;;7.05;;
57111;SDS011;42992;49.084;19.300;2022-07-23T12:28:57;11.05;;;7.05;;
57111;SDS011;42992;49.084;19.300;2022-07-23T12:31:27;6.80;;;6.07;;
57111;SDS011;42992;49.084;19.300;2022-07-23T12:33:52;8.43;;;6.82;;
57111;SDS011;42992;49.084;19.300;2022-07-23T12:36:17;8.98;;;6.18;;
57111;SDS011;42992;49.084;19.300;2022-07-23T12:38:44;7.72;;;6.85;;
57111;SDS011;42992;49.084;19.300;2022-07-23T12:41:11;8.48;;;6.68;;
57111;SDS011;42992;49.084;19.300;2022-07-23T12:43:37;9.85;;;7.20;;
57111;SDS011;42992;49.084;19.300;2022-07-23T12:46:04;7.60;;;6.70;;
57111;SDS011;42992;49.084;19.300;2022-07-23T12:48:34;7.47;;;6.68;;
57111;SDS011;42992;49.084;19.300;2022-07-23T12:51:02;7.82;;;6.13;;
57111;SDS011;42992;49.084;19.300;2022-07-23T12:55:57;7.32;;;6.07;;
57111;SDS011;42992;49.084;19.300;2022-07-23T12:58:23;10.48;;;6.35;;
57111;SDS011;42992;49.084;19.300;2022-07-23T13:00:59;8.32;;;6.75;;
57111;SDS011;42992;49.084;19.300;2022-07-23T13:05:50;7.30;;;6.47;;
57111;SDS011;42992;49.084;19.300;2022-07-23T13:08:15;9.07;;;6.50;;
57111;SDS011;42992;49.084;19.300;2022-07-23T13:10:41;7.88;;;6.18;;
57111;SDS011;42992;49.084;19.300;2022-07-23T13:13:09;7.32;;;6.45;;
57111;SDS011;42992;49.084;19.300;2022-07-23T13:15:35;10.07;;;6.28;;
57111;SDS011;42992;49.084;19.300;2022-07-23T13:18:00;6.07;;;5.47;;
57111;SDS011;42992;49.084;19.300;2022-07-23T13:20:25;8.05;;;6.00;;
57111;SDS011;42992;49.084;19.300;2022-07-23T13:22:50;8.15;;;5.60;;
57111;SDS011;42992;49.084;19.300;2022-07-23T13:25:16;7.20;;;5.82;;
57111;SDS011;42992;49.084;19.300;2022-07-23T13:27:41;10.33;;;6.17;;
57111;SDS011;42992;49.084;19.300;2022-07-23T13:30:07;7.03;;;5.80;;
57111;SDS011;42992;49.084;19.300;2022-07-23T13:32:34;7.15;;;5.68;;
57111;SDS011;42992;49.084;19.300;2022-07-23T13:34:59;8.68;;;6.45;;
57111;SDS011;42992;49.084;19.300;2022-07-23T13:37:25;9.68;;;6.43;;
57111;SDS011;42992;49.084;19.300;2022-07-23T13:39:51;7.82;;;6.43;;
57111;SDS011;42992;49.084;19.300;2022-07-23T13:42:16;8.13;;;6.40;;
57111;SDS011;42992;49.084;19.300;2022-07-23T13:44:42;6.97;;;5.75;;
57111;SDS011;42992;49.084;19.300;2022-07-23T13:47:08;7.13;;;5.95;;
57111;SDS011;42992;49.084;19.300;2022-07-23T13:49:33;9.98;;;5.78;;
57111;SDS011;42992;49.084;19.300;2022-07-23T13:51:59;7.05;;;5.53;;
57111;SDS011;42992;49.084;19.300;2022-07-23T13:54:24;6.53;;;5.80;;
57111;SDS011;42992;49.084;19.300;2022-07-23T13:56:49;6.07;;;5.20;;
57111;SDS011;42992;49.084;19.300;2022-07-23T13:59:15;8.77;;;5.20;;
57111;SDS011;42992;49.084;19.300;2022-07-23T14:01:40;7.13;;;5.13;;
57111;SDS011;42992;49.084;19.300;2022-07-23T14:04:05;9.82;;;4.75;;
57111;SDS011;42992;49.084;19.300;2022-07-23T14:06:31;11.88;;;5.25;;
57111;SDS011;42992;49.084;19.300;2022-07-23T14:08:56;16.35;;;5.85;;
57111;SDS011;42992;49.084;19.300;2022-07-23T14:11:22;9.80;;;5.28;;
57111;SDS011;42992;49.084;19.300;2022-07-23T14:13:47;14.07;;;5.65;;
57111;SDS011;42992;49.084;19.300;2022-07-23T14:16:12;6.43;;;5.10;;
57111;SDS011;42992;49.084;19.300;2022-07-23T14:18:38;10.23;;;6.15;;
57111;SDS011;42992;49.084;19.300;2022-07-23T14:21:03;8.07;;;5.60;;
57111;SDS011;42992;49.084;19.300;2022-07-23T14:23:28;8.10;;;5.32;;
57111;SDS011;42992;49.084;19.300;2022-07-23T14:25:54;10.60;;;6.03;;
57111;SDS011;42992;49.084;19.300;2022-07-23T14:28:19;7.65;;;5.20;;
57111;SDS011;42992;49.084;19.300;2022-07-23T14:30:44;11.93;;;5.03;;
57111;SDS011;42992;49.084;19.300;2022-07-23T14:33:10;7.28;;;5.13;;
57111;SDS011;42992;49.084;19.300;2022-07-23T14:35:35;8.85;;;5.00;;
57111;SDS011;42992;49.084;19.300;2022-07-23T14:38:03;7.28;;;4.30;;
57111;SDS011;42992;49.084;19.300;2022-07-23T14:40:28;6.63;;;4.47;;
57111;SDS011;42992;49.084;19.300;2022-07-23T14:42:53;5.88;;;3.63;;
57111;SDS011;42992;49.084;19.300;2022-07-23T14:45:19;11.15;;;3.80;;
57111;SDS011;42992;49.084;19.300;2022-07-23T14:47:44;8.93;;;3.83;;
57111;SDS011;42992;49.084;19.300;2022-07-23T14:50:10;9.80;;;4.20;;
57111;SDS011;42992;49.084;19.300;2022-07-23T14:52:35;7.53;;;4.22;;
57111;SDS011;42992;49.084;19.300;2022-07-23T14:55:01;8.10;;;3.97;;
57111;SDS011;42992;49.084;19.300;2022-07-23T14:57:27;6.68;;;4.40;;
57111;SDS011;42992;49.084;19.300;2022-07-23T14:59:52;8.45;;;3.50;;
57111;SDS011;42992;49.084;19.300;2022-07-23T15:02:17;10.38;;;4.60;;
57111;SDS011;42992;49.084;19.300;2022-07-23T15:04:43;5.97;;;4.93;;